Japan Airlines Virtual Airport Information Service

Naha Airport

ICAO: ROAH Country: Japan
Latitude: 26.1958 Longitude: 127.646
Latest Arrival : JTA5 (RJBB-ROAH) Latest Departure : ANA8411 (ROAH-WSSS)


WX CaptureLIVE
Data provided by noaa.gov | Fetched at 14:37:36

METAR : ROAH 281407Z 35022G32KT 9999 -SHRA FEW035 SCT040 BKN060 16/08 Q1021 RMK 1CU035 3SC040 6AC060 A3016

TAF : ROAH 281105Z 2812/2918 35027KT 9999 FEW025 BKN045 TEMPO 2812/2818 35031G41KT BECMG 2906/2909 03015KT


Runway Data for ROAH
Data provided by openaviationdata.com

Runway ID Mag Var Hdg Length Elevation Surface ILS Freq ILS Id ILS Slope
18 -4 181° 9872 ft 11 ft Asphalt -- -- --
36 -4 9872 ft 11 ft Asphalt 110.3 IOK 2

Naha Airport, Japan
Use only for reference purposes



Not for navigational purposes.